Spalding, Missouri
Current Conditions -  °F | °C
As of 10:55 AM on Monday 22 Dec 2014 (Local Time) from KHAE Reporting Station
Haze Haze  
Wind Chill: 37°   Ceiling: 400
Heat Index: 41°   Visibility: 4mi
Dew Point: 37°   Wind: 6mph
Humidity: 87%   Direction: 130°SE
Pressure: 29.65"   Gusts: NA
Location:  39.7145°N, 91.4209°W
Report Text: KHAE 221655Z AUTO 13005KT 4SM BR OVC004 05/03 A2965 RMK AO2
Loading
Personal Weather Stations






























Interactive Weather Map New forecast layout! Learn more

10-Day Weather Forecast

Advertisements
Track Severe Weather on mobile